createdAt,value
2017-07-22T14:23:58.701Z,29.57
2017-07-22T14:29:00.440Z,7.73
2017-07-22T14:31:28.054Z,8.20
2017-07-22T14:33:55.654Z,13.00
2017-07-22T14:36:23.309Z,8.97
2017-07-22T14:38:50.909Z,9.03
2017-07-22T14:41:18.508Z,22.63
2017-07-22T14:43:46.170Z,9.60
2017-07-22T14:46:13.761Z,9.10
2017-07-22T14:48:41.350Z,8.80
2017-07-22T14:51:09.011Z,9.47
2017-07-22T14:53:36.638Z,9.83
2017-07-22T14:56:04.334Z,9.43
2017-07-22T14:58:32.048Z,10.90
2017-07-22T15:00:59.642Z,7.50
2017-07-22T15:03:27.240Z,11.40
2017-07-22T15:05:54.899Z,8.67
2017-07-22T15:08:22.531Z,10.10
2017-07-22T15:10:50.152Z,7.80
2017-07-22T15:13:17.811Z,13.03
2017-07-22T15:15:45.422Z,9.43
2017-07-22T15:18:13.019Z,10.40
2017-07-22T15:20:40.663Z,9.07
2017-07-22T15:23:08.250Z,9.90
2017-07-22T15:25:35.879Z,8.73
2017-07-22T15:28:03.542Z,10.70
2017-07-22T15:30:31.365Z,8.53
2017-07-22T15:32:58.949Z,9.57
2017-07-22T15:35:26.727Z,16.70
2017-07-22T15:37:54.331Z,25.03
2017-07-22T15:40:22.007Z,8.77
2017-07-22T15:42:49.729Z,14.13
2017-07-22T15:45:17.340Z,9.20
2017-07-22T15:47:45.036Z,10.30
2017-07-22T15:50:12.695Z,12.30
2017-07-22T15:52:40.301Z,9.50
2017-07-22T15:55:07.913Z,11.00
2017-07-22T15:57:35.573Z,9.73
2017-07-22T16:00:03.192Z,9.40
2017-07-22T16:02:30.795Z,11.63
2017-07-22T16:04:58.464Z,9.50
2017-07-22T16:07:26.130Z,11.57
2017-07-22T16:09:53.721Z,10.43
2017-07-22T16:12:21.449Z,10.23
2017-07-22T16:14:49.053Z,17.77
2017-07-22T16:17:16.746Z,30.33
2017-07-22T16:19:44.415Z,10.57
2017-07-22T16:22:12.029Z,11.50
2017-07-22T16:24:39.643Z,15.93
2017-07-22T16:27:07.314Z,10.87
2017-07-22T16:29:34.899Z,11.20
2017-07-22T16:32:02.498Z,18.03
2017-07-22T16:34:30.172Z,13.83
2017-07-22T16:36:57.775Z,10.47
2017-07-22T16:39:25.395Z,13.87
2017-07-22T16:41:53.057Z,10.40
2017-07-22T16:44:20.676Z,15.27
2017-07-22T16:46:48.339Z,12.30
2017-07-22T16:49:15.993Z,27.57
2017-07-22T16:51:43.610Z,21.77
2017-07-22T16:54:11.228Z,16.60
2017-07-22T16:56:38.909Z,20.47
2017-07-22T16:59:06.536Z,25.83
2017-07-22T17:01:34.161Z,23.37
2017-07-22T17:04:01.837Z,20.87
2017-07-22T17:06:29.448Z,19.20
2017-07-22T17:08:57.109Z,17.30
2017-07-22T17:11:24.768Z,23.50
2017-07-22T17:13:52.394Z,45.30
2017-07-22T17:16:20.001Z,39.93
2017-07-22T17:18:47.667Z,18.80
2017-07-22T17:21:15.254Z,22.30
2017-07-22T17:23:42.858Z,25.93
2017-07-22T17:26:10.522Z,24.67
2017-07-22T17:28:38.136Z,34.70
2017-07-22T17:31:05.774Z,17.30
2017-07-22T17:33:33.435Z,23.37
2017-07-22T17:36:01.041Z,26.30
2017-07-22T17:38:28.648Z,31.53
2017-07-22T17:40:56.302Z,20.47
2017-07-22T17:43:23.913Z,24.83
2017-07-22T17:45:51.504Z,24.13
2017-07-22T17:48:19.168Z,24.40
2017-07-22T17:50:46.779Z,23.77
2017-07-22T17:53:14.393Z,34.13
2017-07-22T17:55:42.035Z,26.87
2017-07-22T17:58:09.663Z,24.83
2017-07-22T18:00:37.275Z,23.23
2017-07-22T18:03:04.952Z,27.77
2017-07-22T18:05:32.643Z,21.83
2017-07-22T18:08:00.281Z,32.83
2017-07-22T18:10:27.968Z,44.00
2017-07-22T18:12:55.589Z,37.77
2017-07-22T18:15:23.190Z,71.30
2017-07-22T18:17:50.861Z,53.70
2017-07-22T18:20:18.479Z,32.07
2017-07-22T18:22:46.072Z,34.50
2017-07-22T18:25:13.712Z,33.13
2017-07-22T18:27:41.310Z,28.40
2017-07-22T18:30:08.905Z,23.90
2017-07-22T18:32:36.551Z,25.70
2017-07-22T18:35:04.192Z,27.50
2017-07-22T18:37:31.786Z,34.50
2017-07-22T18:39:59.443Z,29.43
2017-07-22T18:42:27.069Z,27.03
2017-07-22T18:44:54.811Z,20.80
2017-07-22T18:47:23.533Z,27.47
2017-07-22T18:49:51.142Z,21.73
2017-07-22T18:52:18.765Z,24.40
2017-07-22T18:54:46.439Z,30.20
2017-07-22T18:57:14.046Z,22.50
2017-07-22T18:59:41.635Z,22.00
2017-07-22T19:02:09.287Z,25.63
2017-07-22T19:04:36.915Z,22.93
2017-07-22T19:07:04.528Z,30.03
2017-07-22T19:09:32.191Z,22.07
2017-07-22T19:12:00.003Z,20.73
2017-07-22T19:14:27.648Z,22.07
2017-07-22T19:16:55.349Z,26.10
2017-07-22T19:19:22.970Z,42.10
2017-07-22T19:21:50.628Z,54.40
2017-07-22T19:24:18.439Z,34.60
2017-07-22T19:26:46.068Z,39.70
2017-07-22T19:29:13.670Z,25.17
2017-07-22T19:31:41.326Z,24.60
2017-07-22T19:34:08.925Z,23.40
2017-07-22T19:36:36.550Z,31.20
2017-07-22T19:39:04.570Z,31.67
2017-07-22T19:41:32.292Z,22.63
2017-07-22T19:44:00.046Z,31.20
2017-07-22T19:46:27.834Z,23.60
2017-07-22T19:48:55.492Z,23.37
2017-07-22T19:51:23.118Z,24.83
2017-07-22T19:53:50.793Z,26.43
2017-07-22T19:56:18.438Z,25.03
2017-07-22T19:58:46.060Z,25.20
2017-07-22T20:01:13.785Z,25.57
2017-07-22T20:03:41.485Z,23.27
2017-07-22T20:06:09.108Z,32.47
2017-07-22T20:08:36.772Z,25.07
2017-07-22T20:11:04.374Z,29.73
2017-07-22T20:13:32.064Z,25.90
2017-07-22T20:15:59.728Z,22.67
2017-07-22T20:18:27.352Z,29.93
2017-07-22T20:20:54.961Z,25.20
2017-07-22T20:23:22.647Z,22.93
2017-07-22T20:25:50.240Z,23.93
2017-07-22T20:28:17.845Z,32.47
2017-07-22T20:30:45.499Z,36.27
2017-07-22T20:33:13.099Z,29.43
2017-07-22T20:35:40.701Z,27.73
2017-07-22T20:38:08.384Z,28.93
2017-07-22T20:40:35.981Z,36.97
2017-07-22T20:43:03.590Z,27.30
2017-07-22T20:45:31.252Z,31.00
2017-07-22T20:47:58.850Z,26.20
2017-07-22T20:50:26.442Z,25.40
2017-07-22T20:52:54.173Z,31.00
2017-07-22T20:55:21.784Z,25.40
2017-07-22T20:57:49.404Z,24.27
2017-07-22T21:00:17.076Z,25.10
2017-07-22T21:02:44.698Z,24.07
2017-07-22T21:05:12.318Z,28.20
2017-07-22T21:07:40.001Z,29.27
2017-07-22T21:10:07.598Z,28.33
2017-07-22T21:12:35.200Z,24.93
2017-07-22T21:15:02.881Z,24.53
2017-07-22T21:17:30.483Z,26.10
2017-07-22T21:19:58.201Z,34.87
2017-07-22T21:22:25.840Z,31.17
2017-07-22T21:24:53.431Z,25.33
2017-07-22T21:27:21.016Z,29.30
2017-07-22T21:29:48.657Z,27.57
2017-07-22T21:32:16.259Z,26.10
2017-07-22T21:34:43.860Z,25.30
2017-07-22T21:37:11.519Z,30.03
2017-07-22T21:39:39.126Z,29.50
2017-07-22T21:42:06.725Z,27.70
2017-07-22T21:44:34.376Z,27.37
2017-07-22T21:47:02.044Z,26.93
2017-07-22T21:49:29.654Z,27.90
2017-07-22T21:51:57.296Z,33.00
2017-07-22T21:54:24.907Z,31.77
2017-07-22T21:56:52.516Z,32.53
2017-07-22T21:59:20.150Z,30.37
2017-07-22T22:01:47.830Z,28.17
2017-07-22T22:04:15.463Z,29.80
2017-07-22T22:06:43.231Z,31.87
2017-07-22T22:09:10.879Z,30.30
2017-07-22T22:11:38.595Z,29.57
2017-07-22T22:14:06.247Z,32.33
2017-07-22T22:16:33.908Z,32.50
2017-07-22T22:19:01.514Z,34.10
2017-07-22T22:21:29.181Z,27.83
2017-07-22T22:23:56.810Z,30.67
2017-07-22T22:26:24.426Z,30.50
2017-07-22T22:28:52.092Z,29.87
2017-07-22T22:31:19.704Z,31.77
2017-07-22T22:33:47.303Z,29.97
2017-07-22T22:36:14.992Z,29.93
2017-07-22T22:38:42.590Z,38.50
2017-07-22T22:41:10.174Z,54.57
2017-07-22T22:43:37.826Z,32.03
2017-07-22T22:46:05.426Z,38.33
2017-07-22T22:48:33.037Z,31.33
2017-07-22T22:51:00.688Z,31.53
2017-07-22T22:53:28.282Z,36.20
2017-07-22T22:55:55.877Z,28.57
2017-07-22T22:58:23.518Z,26.50
2017-07-22T23:00:51.115Z,26.33
2017-07-22T23:03:18.694Z,26.93
2017-07-22T23:05:46.370Z,56.53
2017-07-22T23:08:13.987Z,30.23
2017-07-22T23:10:41.631Z,35.53
2017-07-22T23:13:09.297Z,27.90
2017-07-22T23:15:36.906Z,30.03
2017-07-22T23:18:04.563Z,29.23
2017-07-22T23:20:32.261Z,27.33
2017-07-22T23:22:59.865Z,28.73
2017-07-22T23:25:27.463Z,33.03
2017-07-22T23:27:55.133Z,27.70
2017-07-22T23:30:22.746Z,28.73
2017-07-22T23:32:50.357Z,30.13
2017-07-22T23:35:18.010Z,36.53
2017-07-22T23:37:45.602Z,30.87
2017-07-22T23:40:13.228Z,33.53
2017-07-22T23:42:40.894Z,34.57
2017-07-22T23:45:08.498Z,34.40
2017-07-22T23:47:36.108Z,32.20
2017-07-22T23:50:03.785Z,36.50
2017-07-22T23:52:31.398Z,37.00
2017-07-22T23:54:58.997Z,34.87
2017-07-22T23:57:26.661Z,38.27
2017-07-22T23:59:54.278Z,30.63
